createdAt,value
2019-04-22T00:00:37.233Z,9.7017
2019-04-22T00:01:43.593Z,9.3626
2019-04-22T00:02:53.897Z,9.7017
2019-04-22T00:04:02.654Z,9.7604
2019-04-22T00:05:14.291Z,9.7738
2019-04-22T00:06:38.178Z,9.7604
2019-04-22T00:07:45.069Z,10.0408
2019-04-22T00:08:55.561Z,10.1396
2019-04-22T00:11:14.516Z,9.6590
2019-04-22T00:12:22.190Z,9.7177
2019-04-22T00:13:26.172Z,9.8592
2019-04-22T00:14:28.279Z,10.0702
2019-04-22T00:15:35.666Z,10.0969
2019-04-22T00:16:56.645Z,10.0408
2019-04-22T00:18:03.335Z,10.1957
2019-04-22T00:19:24.345Z,10.6230
2019-04-22T00:21:26.323Z,10.0542
2019-04-22T00:22:27.737Z,9.7177
2019-04-22T00:23:39.348Z,9.6750
2019-04-22T00:24:46.072Z,9.9287
2019-04-22T00:25:55.847Z,9.9420
2019-04-22T00:27:03.896Z,9.9714
2019-04-22T00:28:08.703Z,9.8005
2019-04-22T00:29:37.108Z,9.5174
2019-04-22T00:30:22.536Z,9.5174
2019-04-22T00:31:38.476Z,9.4747
2019-04-22T00:32:36.993Z,9.1649
2019-04-22T00:33:45.525Z,9.3332
2019-04-22T00:34:56.010Z,9.4614
2019-04-22T00:36:04.697Z,9.5602
2019-04-22T00:37:17.286Z,9.7871
2019-04-22T00:38:26.572Z,9.7311
2019-04-22T00:39:37.349Z,9.8592
2019-04-22T00:40:39.707Z,9.7871
2019-04-22T00:41:44.056Z,9.8859
2019-04-22T00:42:53.058Z,9.8993
2019-04-22T00:44:02.883Z,9.8165
2019-04-22T00:45:11.705Z,9.5308
2019-04-22T00:46:19.594Z,9.8165
2019-04-22T00:47:30.629Z,9.5735
2019-04-22T00:48:35.975Z,9.6002
2019-04-22T00:50:58.362Z,9.5014
2019-04-22T00:52:05.168Z,9.5602
2019-04-22T00:53:11.655Z,9.7871
2019-04-22T00:54:17.021Z,9.6883
2019-04-22T00:56:27.881Z,9.2344
2019-04-22T00:57:56.315Z,9.4881
2019-04-22T00:59:08.218Z,9.7738
2019-04-22T00:59:55.385Z,9.7871
2019-04-22T01:01:01.631Z,9.3065
2019-04-22T01:02:13.400Z,9.3893
2019-04-22T01:03:21.445Z,9.1917
2019-04-22T01:04:29.125Z,9.4614
2019-04-22T01:05:34.226Z,9.5014
2019-04-22T01:06:40.618Z,9.3626
2019-04-22T01:07:49.461Z,9.2477
2019-04-22T01:09:05.385Z,9.3198
2019-04-22T01:10:06.532Z,9.4320
2019-04-22T01:11:17.154Z,9.1917
2019-04-22T01:12:24.488Z,9.1089
2019-04-22T01:14:34.264Z,9.4881
2019-04-22T01:15:54.080Z,9.6296
2019-04-22T01:16:57.742Z,9.5869
2019-04-22T01:18:08.239Z,9.5308
2019-04-22T01:19:06.527Z,9.6429
2019-04-22T01:20:45.784Z,9.6750
2019-04-22T01:21:32.072Z,9.6429
2019-04-22T01:22:34.186Z,9.5735
2019-04-22T01:23:41.066Z,9.5174
2019-04-22T01:24:51.567Z,9.3893
2019-04-22T01:25:55.356Z,9.4881
2019-04-22T01:27:03.225Z,9.6162
2019-04-22T01:28:10.855Z,9.6750
2019-04-22T01:29:14.678Z,9.4320
2019-04-22T01:30:23.272Z,9.4186
2019-04-22T01:31:25.025Z,9.6750
2019-04-22T01:32:34.999Z,9.4053
2019-04-22T01:33:44.158Z,9.4881
2019-04-22T01:34:56.541Z,9.3626
2019-04-22T01:36:15.574Z,9.3332
2019-04-22T01:37:21.664Z,9.4614
2019-04-22T01:38:23.346Z,9.5014
2019-04-22T01:39:44.092Z,9.3893
2019-04-22T01:40:52.610Z,9.1649
2019-04-22T01:43:07.285Z,9.4881
2019-04-22T01:45:22.795Z,9.1356
2019-04-22T01:46:31.558Z,9.6002
2019-04-22T01:47:36.407Z,9.6296
2019-04-22T01:48:50.033Z,9.5441
2019-04-22T01:49:55.617Z,9.6162
2019-04-22T01:50:56.182Z,9.3332
2019-04-22T01:52:14.304Z,9.5014
2019-04-22T01:53:21.572Z,9.7604
2019-04-22T01:55:36.940Z,9.9420
2019-04-22T01:56:44.927Z,9.5174
2019-04-22T01:57:50.107Z,9.3065
2019-04-22T01:58:54.624Z,9.3465
2019-04-22T02:00:00.786Z,9.3332
2019-04-22T02:01:27.509Z,9.5869
2019-04-22T02:02:23.576Z,9.2477
2019-04-22T02:03:33.387Z,9.3065
2019-04-22T02:05:46.893Z,8.8792
2019-04-22T02:06:57.810Z,8.9220
2019-04-22T02:08:04.443Z,8.9807
2019-04-22T02:09:20.406Z,8.9807
2019-04-22T02:10:30.833Z,8.9940
2019-04-22T02:11:33.911Z,9.1783
2019-04-22T02:12:39.835Z,8.9673
2019-04-22T02:13:54.400Z,8.9220
2019-04-22T02:14:50.434Z,8.6683
2019-04-22T02:15:54.829Z,8.8792
2019-04-22T02:17:10.796Z,8.8365
2019-04-22T02:18:23.388Z,8.7537
2019-04-22T02:19:33.437Z,8.6816
2019-04-22T02:20:41.054Z,8.7537
2019-04-22T02:21:42.739Z,8.8926
2019-04-22T02:23:00.911Z,8.8525
2019-04-22T02:23:56.555Z,8.7537
2019-04-22T02:25:13.492Z,8.9086
2019-04-22T02:26:17.537Z,8.8525
2019-04-22T02:27:28.761Z,8.7804
2019-04-22T02:28:36.715Z,8.8231
2019-04-22T02:29:45.459Z,8.8365
2019-04-22T02:30:54.308Z,8.9353
2019-04-22T02:33:30.761Z,8.4707
2019-04-22T02:34:21.680Z,8.5695
2019-04-22T02:35:41.205Z,8.4012
2019-04-22T02:38:04.739Z,8.9353
2019-04-22T02:39:00.041Z,9.0501
2019-04-22T02:39:56.757Z,9.0234
2019-04-22T02:42:10.582Z,8.8098
2019-04-22T02:44:30.354Z,8.8525
2019-04-22T02:45:52.227Z,8.7110
2019-04-22T02:46:53.236Z,8.6816
2019-04-22T02:47:54.040Z,8.6816
2019-04-22T02:50:05.146Z,9.3065
2019-04-22T02:52:26.272Z,8.8098
2019-04-22T02:54:02.595Z,8.5267
2019-04-22T02:55:53.558Z,8.3158
2019-04-22T02:56:53.030Z,8.6549
2019-04-22T02:58:05.647Z,9.0368
2019-04-22T03:00:29.526Z,9.3893
2019-04-22T03:01:31.313Z,8.7377
2019-04-22T03:02:56.327Z,8.6950
2019-04-22T03:04:51.195Z,8.8659
2019-04-22T03:07:03.718Z,9.3065
2019-04-22T03:09:25.469Z,8.7377
2019-04-22T03:12:02.861Z,8.5695
2019-04-22T03:12:43.500Z,8.2731
2019-04-22T03:15:00.042Z,8.6950
2019-04-22T03:16:17.130Z,8.3291
2019-04-22T03:17:20.647Z,8.2170
2019-04-22T03:18:38.316Z,7.9473
2019-04-22T03:20:55.550Z,8.3852
2019-04-22T03:21:57.753Z,8.6816
2019-04-22T03:23:05.801Z,8.9086
2019-04-22T03:26:32.015Z,9.2638
2019-04-22T03:27:31.832Z,8.4573
2019-04-22T03:28:47.809Z,8.2303
2019-04-22T03:29:58.695Z,8.0594
2019-04-22T03:32:33.108Z,8.2036
2019-04-22T03:40:17.497Z,8.3852
2019-04-22T03:41:24.456Z,8.5000
2019-04-22T03:42:17.598Z,8.4840
2019-04-22T03:43:38.073Z,8.2036
2019-04-22T03:45:58.703Z,8.2170
2019-04-22T03:47:09.476Z,8.4146
2019-04-22T03:48:01.514Z,9.1222
2019-04-22T03:49:24.042Z,8.4573
2019-04-22T03:50:20.695Z,8.3425
2019-04-22T03:52:27.143Z,8.1743
2019-04-22T03:53:38.236Z,8.9353
2019-04-22T03:55:05.441Z,8.6950
2019-04-22T03:55:53.174Z,9.0101
2019-04-22T03:58:21.444Z,8.4707
2019-04-22T04:00:36.001Z,8.1422
2019-04-22T04:02:47.392Z,8.1743
2019-04-22T04:04:00.689Z,8.2597
2019-04-22T04:04:58.743Z,8.4413
2019-04-22T04:05:59.605Z,8.3585
2019-04-22T04:07:34.264Z,8.2437
2019-04-22T04:08:26.844Z,8.4413
2019-04-22T04:09:32.749Z,8.5828
2019-04-22T04:10:40.047Z,7.8191
2019-04-22T04:13:01.933Z,8.0728
2019-04-22T04:14:11.956Z,8.2597
2019-04-22T04:16:21.769Z,8.0728
2019-04-22T04:18:46.875Z,8.0034
2019-04-22T04:20:03.498Z,8.0461
2019-04-22T04:21:09.152Z,8.0594
2019-04-22T04:23:30.800Z,8.1582
2019-04-22T04:24:32.735Z,8.2036
2019-04-22T04:25:32.178Z,8.2303
2019-04-22T04:26:51.836Z,7.9873
2019-04-22T04:29:05.458Z,8.2864
2019-04-22T04:30:05.674Z,8.2597
2019-04-22T04:31:15.182Z,8.2036
2019-04-22T04:32:27.388Z,8.2036
2019-04-22T04:34:56.276Z,8.2597
2019-04-22T04:36:54.701Z,8.0167
2019-04-22T04:39:06.712Z,7.9740
2019-04-22T04:46:02.855Z,8.4146
2019-04-22T04:47:11.829Z,8.3024
2019-04-22T04:49:24.109Z,8.0594
2019-04-22T04:51:47.031Z,8.6683
2019-04-22T04:53:02.315Z,8.5561
2019-04-22T04:54:01.694Z,8.4707
2019-04-22T04:56:10.842Z,8.8659
2019-04-22T04:57:41.002Z,8.9673
2019-04-22T05:00:48.896Z,8.5000
2019-04-22T05:03:00.552Z,8.3585
2019-04-22T05:04:11.379Z,8.4146
2019-04-22T05:05:12.262Z,8.5828
2019-04-22T05:06:24.294Z,8.7804
2019-04-22T05:07:38.251Z,8.8525
2019-04-22T05:08:52.820Z,8.8365
2019-04-22T05:09:47.343Z,8.8659
2019-04-22T05:13:01.630Z,8.3585
2019-04-22T05:14:24.058Z,8.3024
2019-04-22T05:15:33.008Z,8.3585
2019-04-22T05:16:32.501Z,8.4573
2019-04-22T05:17:45.504Z,8.3852
2019-04-22T05:18:49.031Z,8.3852
2019-04-22T05:19:49.565Z,8.2303
2019-04-22T05:21:09.349Z,8.3425
2019-04-22T05:22:05.797Z,8.4413
2019-04-22T05:23:20.743Z,8.5828
2019-04-22T05:24:26.212Z,8.5401
2019-04-22T05:25:26.948Z,8.7537
2019-04-22T05:26:39.697Z,8.8525
2019-04-22T05:27:48.768Z,8.7671
2019-04-22T05:28:52.180Z,8.7537
2019-04-22T05:30:21.554Z,8.7110
2019-04-22T05:31:08.364Z,8.7110
2019-04-22T05:32:17.597Z,8.6389
2019-04-22T05:33:21.658Z,8.5134
2019-04-22T05:34:31.842Z,8.5134
2019-04-22T05:35:41.232Z,8.5000
2019-04-22T05:36:48.446Z,8.6122
2019-04-22T05:37:58.091Z,8.4707
2019-04-22T05:39:09.148Z,8.6389
2019-04-22T05:40:22.965Z,8.7938
2019-04-22T05:41:16.325Z,8.8659
2019-04-22T05:42:23.747Z,8.9220
2019-04-22T05:43:34.371Z,8.9086
2019-04-22T05:45:50.954Z,8.8792
2019-04-22T05:46:52.771Z,8.9807
2019-04-22T05:48:02.840Z,8.9807
2019-04-22T05:50:47.237Z,9.0501
2019-04-22T05:51:33.869Z,9.0928
2019-04-22T05:52:40.492Z,9.1783
2019-04-22T05:53:48.173Z,9.1917
2019-04-22T05:54:55.301Z,9.1917
2019-04-22T05:56:07.002Z,9.3198
2019-04-22T05:57:14.347Z,9.3626
2019-04-22T05:58:24.405Z,9.3198
2019-04-22T05:59:32.618Z,9.4186
2019-04-22T06:01:55.088Z,9.6162
2019-04-22T06:05:10.051Z,9.8299
2019-04-22T06:07:24.780Z,9.8005
2019-04-22T06:08:33.658Z,9.8726
2019-04-22T06:09:32.294Z,9.9287
2019-04-22T06:11:53.200Z,9.9847
2019-04-22T06:13:02.126Z,9.8592
2019-04-22T06:14:07.548Z,9.8165
2019-04-22T06:15:19.498Z,9.8592
2019-04-22T06:16:34.582Z,9.9287
2019-04-22T06:17:38.944Z,10.0542
2019-04-22T06:18:38.587Z,9.9714
2019-04-22T06:19:50.873Z,10.0702
2019-04-22T06:21:06.610Z,10.1129
2019-04-22T06:22:17.231Z,10.1690
2019-04-22T06:23:18.678Z,10.2811
2019-04-22T06:25:49.279Z,10.4253
2019-04-22T06:27:53.921Z,10.2251
2019-04-22T06:30:07.655Z,10.0969
2019-04-22T06:31:23.010Z,10.1530
2019-04-22T06:32:26.672Z,10.0969
2019-04-22T06:33:34.791Z,10.2384
2019-04-22T06:34:35.940Z,10.2117
2019-04-22T06:35:54.623Z,10.1263
2019-04-22T06:37:01.883Z,10.1129
2019-04-22T06:39:14.348Z,10.1263
2019-04-22T06:40:24.674Z,10.2384
2019-04-22T06:41:27.371Z,10.2811
2019-04-22T06:42:39.387Z,10.2384
2019-04-22T06:43:40.770Z,10.2811
2019-04-22T06:44:56.416Z,10.3506
2019-04-22T06:46:00.745Z,10.3506
2019-04-22T06:47:06.167Z,10.4387
2019-04-22T06:48:19.456Z,10.5936
2019-04-22T06:50:40.498Z,10.8339
2019-04-22T06:51:40.228Z,10.8206
2019-04-22T06:52:52.298Z,10.8339
2019-04-22T06:53:59.148Z,10.9754
2019-04-22T06:55:11.725Z,11.0315
2019-04-22T06:56:14.225Z,11.2585
2019-04-22T06:57:22.090Z,11.2318
2019-04-22T06:58:33.394Z,11.3012
2019-04-22T06:59:32.700Z,11.4721
2019-04-22T07:00:42.935Z,11.5976
2019-04-22T07:01:50.361Z,11.6964
2019-04-22T07:03:23.750Z,11.7418
2019-04-22T07:04:03.178Z,11.8273
2019-04-22T07:05:17.961Z,11.8273
2019-04-22T07:06:26.139Z,11.8967
2019-04-22T07:07:31.189Z,11.8540
2019-04-22T07:09:48.754Z,11.8112
2019-04-22T07:10:50.715Z,11.6964
2019-04-22T07:12:09.787Z,11.6831
2019-04-22T07:13:21.217Z,11.5976
2019-04-22T07:14:19.112Z,11.5122
2019-04-22T07:15:45.584Z,11.4134
2019-04-22T07:16:37.856Z,11.3733
2019-04-22T07:17:49.235Z,11.4134
2019-04-22T07:18:48.469Z,11.4134
2019-04-22T07:20:02.123Z,11.4427
2019-04-22T07:21:06.618Z,11.4855
2019-04-22T07:22:16.269Z,11.6537
2019-04-22T07:23:38.635Z,11.7712
2019-04-22T07:24:40.350Z,11.8673
2019-04-22T07:25:40.772Z,12.0809
2019-04-22T07:26:45.133Z,12.2625
2019-04-22T07:28:13.884Z,12.5055
2019-04-22T07:29:06.236Z,12.7459
2019-04-22T07:30:20.683Z,12.7165
2019-04-22T07:31:18.995Z,12.9301
2019-04-22T07:32:53.755Z,13.1437
2019-04-22T07:33:37.673Z,13.2425
2019-04-22T07:34:47.350Z,13.1144
2019-04-22T07:36:12.345Z,13.3120
2019-04-22T07:37:13.084Z,13.3841
2019-04-22T07:38:11.140Z,13.3841
2019-04-22T07:39:17.074Z,13.3413
2019-04-22T07:40:32.473Z,13.1144
2019-04-22T07:41:38.279Z,12.9568
2019-04-22T07:42:45.523Z,12.9301
2019-04-22T07:44:07.633Z,12.6177
2019-04-22T07:44:54.841Z,12.6043
2019-04-22T07:46:10.862Z,12.7325
2019-04-22T07:47:20.588Z,12.7726
2019-04-22T07:49:39.444Z,13.2986
2019-04-22T07:50:49.331Z,13.7205
2019-04-22T07:51:44.589Z,14.1478
2019-04-22T07:52:52.078Z,14.1344
2019-04-22T07:54:01.815Z,14.1344
2019-04-22T07:55:05.589Z,14.1611
2019-04-22T07:56:18.775Z,14.3587
2019-04-22T07:57:37.477Z,14.4148
2019-04-22T07:58:37.639Z,14.5884
2019-04-22T07:59:40.371Z,14.3881
2019-04-22T08:01:12.274Z,14.4896
2019-04-22T08:01:56.490Z,14.7566
2019-04-22T08:03:14.791Z,15.0797
2019-04-22T08:04:30.266Z,15.1091
2019-04-22T08:05:26.365Z,15.4082
2019-04-22T08:06:29.306Z,15.3094
2019-04-22T08:08:45.137Z,15.1812
2019-04-22T08:10:00.077Z,15.0237
2019-04-22T08:11:08.942Z,15.4082
2019-04-22T08:12:12.960Z,15.8301
2019-04-22T08:13:26.288Z,15.6886
2019-04-22T08:14:36.203Z,15.4643
2019-04-22T08:15:41.780Z,15.4082
2019-04-22T08:16:53.067Z,15.6058
2019-04-22T08:19:14.158Z,15.6619
2019-04-22T08:20:18.765Z,15.6886
2019-04-22T08:21:20.005Z,15.9049
2019-04-22T08:22:25.959Z,16.1158
2019-04-22T08:23:39.964Z,16.2013
2019-04-22T08:24:47.309Z,15.9476
2019-04-22T08:25:49.181Z,16.1292
2019-04-22T08:26:57.940Z,16.1719
2019-04-22T08:28:10.427Z,15.5898
2019-04-22T08:29:20.215Z,15.8621
2019-04-22T08:31:35.955Z,16.3829
2019-04-22T08:32:53.359Z,16.6125
2019-04-22T08:33:55.270Z,16.4256
2019-04-22T08:35:05.193Z,16.6686
2019-04-22T08:37:41.936Z,16.8662
2019-04-22T08:38:33.748Z,16.9356
2019-04-22T08:39:33.178Z,17.0638
2019-04-22T08:40:50.165Z,17.0344
2019-04-22T08:41:49.413Z,17.1626
2019-04-22T08:43:07.227Z,17.3762
2019-04-22T08:44:49.690Z,17.4884
2019-04-22T08:45:18.262Z,17.6432
2019-04-22T08:48:37.043Z,17.6993
2019-04-22T08:49:56.360Z,17.7848
2019-04-22T08:50:50.802Z,17.9717
2019-04-22T08:53:28.715Z,17.6593
2019-04-22T08:54:17.988Z,17.7848
2019-04-22T08:55:32.864Z,17.8702
2019-04-22T08:58:07.217Z,18.1533
2019-04-22T08:58:59.946Z,18.3242
2019-04-22T09:00:02.393Z,17.7581
2019-04-22T09:01:11.938Z,17.9984
2019-04-22T09:02:19.572Z,17.0344
2019-04-22T09:03:25.948Z,17.1199
2019-04-22T09:04:31.235Z,17.0478
2019-04-22T09:06:01.966Z,17.0211
2019-04-22T09:07:09.170Z,16.9650
2019-04-22T09:08:02.089Z,17.0478
2019-04-22T09:09:06.173Z,16.9650
2019-04-22T09:10:15.839Z,16.9650
2019-04-22T09:11:26.716Z,16.9490
2019-04-22T09:12:49.979Z,17.1332
2019-04-22T09:13:45.308Z,17.0077
2019-04-22T09:14:45.299Z,17.0905
2019-04-22T09:15:55.541Z,17.0211
2019-04-22T09:17:03.820Z,17.0638
2019-04-22T09:18:19.707Z,16.9650
2019-04-22T09:19:17.819Z,16.9223
2019-04-22T09:20:27.647Z,16.8528
2019-04-22T09:21:43.281Z,16.8662
2019-04-22T09:22:45.403Z,16.8795
2019-04-22T09:24:56.017Z,16.9490
2019-04-22T09:26:09.149Z,16.9783
2019-04-22T09:28:22.817Z,17.0211
2019-04-22T09:29:35.696Z,16.9490
2019-04-22T09:30:43.231Z,17.0638
2019-04-22T09:31:53.594Z,17.1759
2019-04-22T09:33:06.399Z,17.1466
2019-04-22T09:33:59.713Z,17.1626
2019-04-22T09:35:10.158Z,17.3896
2019-04-22T09:36:33.826Z,17.6005
2019-04-22T09:38:38.152Z,17.9984
2019-04-22T09:39:56.085Z,18.1827
2019-04-22T09:40:52.558Z,18.3242
2019-04-22T09:42:00.512Z,17.9984
2019-04-22T09:43:10.027Z,17.6593
2019-04-22T09:44:19.052Z,17.7981
2019-04-22T09:45:21.715Z,17.4456
2019-04-22T09:46:34.644Z,17.7581
2019-04-22T09:48:50.225Z,18.1693
2019-04-22T09:51:05.643Z,18.5058
2019-04-22T09:52:28.016Z,18.4791
2019-04-22T09:53:22.411Z,18.5218
2019-04-22T09:54:45.205Z,17.9717
2019-04-22T09:55:37.089Z,17.9717
2019-04-22T09:56:49.360Z,17.5872
2019-04-22T09:57:53.927Z,17.5872
2019-04-22T09:59:03.961Z,17.6165
2019-04-22T10:00:13.922Z,17.4884
2019-04-22T10:02:38.953Z,17.2480
2019-04-22T10:03:36.770Z,17.4323
2019-04-22T10:04:46.658Z,17.1893
2019-04-22T10:06:02.484Z,17.0905
2019-04-22T10:06:59.701Z,17.2347
2019-04-22T10:08:18.538Z,17.2908
2019-04-22T10:09:33.079Z,17.3762
2019-04-22T10:10:22.164Z,17.7153
2019-04-22T10:11:50.943Z,18.1266
2019-04-22T10:12:43.171Z,17.9850
2019-04-22T10:13:53.825Z,18.1827
2019-04-22T10:14:55.946Z,18.4070
2019-04-22T10:16:12.154Z,18.3669
2019-04-22T10:17:14.177Z,18.4791
2019-04-22T10:18:25.829Z,18.6793
2019-04-22T10:19:29.985Z,18.7221
2019-04-22T10:20:38.163Z,18.6072
2019-04-22T10:21:49.935Z,18.9197
2019-04-22T10:23:03.793Z,18.9597
2019-04-22T10:24:03.537Z,19.0318
2019-04-22T10:25:10.760Z,19.0585
2019-04-22T10:26:22.100Z,19.4430
2019-04-22T10:27:25.954Z,19.8249
2019-04-22T10:28:42.294Z,19.4564
2019-04-22T10:29:48.472Z,19.4297
2019-04-22T10:30:52.151Z,19.7955
2019-04-22T10:32:05.567Z,19.9825
2019-04-22T10:33:09.058Z,19.4724
2019-04-22T10:34:07.081Z,19.4430
2019-04-22T10:35:03.087Z,19.5846
2019-04-22T10:36:07.752Z,19.4991
2019-04-22T10:37:15.284Z,19.5979
2019-04-22T10:38:19.194Z,18.8769
2019-04-22T10:39:35.357Z,18.7781
2019-04-22T10:40:30.224Z,19.3442
2019-04-22T10:41:34.796Z,19.8249
2019-04-22T10:42:37.193Z,19.5712
2019-04-22T10:43:41.221Z,19.4724
2019-04-22T10:44:45.222Z,19.3870
2019-04-22T10:45:50.251Z,19.3309
2019-04-22T10:46:53.877Z,19.8249
2019-04-22T10:47:58.342Z,19.5285
2019-04-22T10:49:01.970Z,19.5552
2019-04-22T10:50:06.651Z,19.9237
2019-04-22T10:51:10.664Z,19.6406
2019-04-22T10:52:13.173Z,19.7261
2019-04-22T10:53:17.697Z,19.7261
2019-04-22T10:54:20.813Z,19.7528
2019-04-22T10:55:23.476Z,19.6113
2019-04-22T10:56:27.202Z,19.7101
2019-04-22T10:57:30.170Z,20.0946
2019-04-22T10:58:33.193Z,19.8516
2019-04-22T10:59:36.521Z,20.2201
2019-04-22T11:00:39.794Z,19.7101
2019-04-22T11:01:44.359Z,19.9638
2019-04-22T11:02:47.947Z,20.0092
2019-04-22T11:03:51.202Z,19.7101
2019-04-22T11:04:54.500Z,19.7955
2019-04-22T11:05:57.224Z,19.9077
2019-04-22T11:07:03.916Z,20.1934
2019-04-22T11:08:10.367Z,20.1640
2019-04-22T11:09:16.351Z,19.6967
2019-04-22T11:10:35.304Z,19.9237
2019-04-22T11:11:39.771Z,19.7662
2019-04-22T11:12:37.994Z,19.5846
2019-04-22T11:13:42.189Z,19.4991
2019-04-22T11:14:45.552Z,19.8943
2019-04-22T11:15:48.815Z,20.3056
2019-04-22T11:16:51.305Z,20.5592
2019-04-22T11:17:55.516Z,20.3777
2019-04-22T11:18:59.335Z,20.6901
2019-04-22T11:20:03.786Z,20.5592
2019-04-22T11:21:07.457Z,20.6340
2019-04-22T11:22:18.793Z,20.1801
2019-04-22T11:23:18.667Z,19.6273
2019-04-22T11:24:21.193Z,19.3736
2019-04-22T11:25:25.517Z,19.3576
2019-04-22T11:26:29.980Z,19.1733
2019-04-22T11:27:34.985Z,19.1733
2019-04-22T11:28:38.329Z,19.0745
2019-04-22T11:29:41.758Z,19.1012
2019-04-22T11:30:45.271Z,19.2882
2019-04-22T11:31:48.780Z,19.3870
2019-04-22T11:32:50.645Z,19.3015
2019-04-22T11:33:54.426Z,19.4724
2019-04-22T11:34:58.066Z,19.6700
2019-04-22T11:36:02.054Z,19.8089
2019-04-22T11:37:05.351Z,19.9371
2019-04-22T11:38:08.888Z,19.7101
2019-04-22T11:39:13.136Z,19.8943
2019-04-22T11:40:25.458Z,19.9958
2019-04-22T11:41:25.559Z,19.9237
2019-04-22T11:42:28.212Z,19.9504
2019-04-22T11:43:32.358Z,20.1801
2019-04-22T11:44:35.332Z,20.3349
2019-04-22T11:45:39.643Z,19.9237
2019-04-22T11:46:43.256Z,19.8516
2019-04-22T11:47:47.605Z,19.9371
2019-04-22T11:48:50.195Z,20.1080
2019-04-22T11:49:54.480Z,20.2495
2019-04-22T11:50:57.879Z,20.3483
2019-04-22T11:52:01.814Z,20.2201
2019-04-22T11:53:04.756Z,20.6741
2019-04-22T11:54:07.791Z,20.5592
2019-04-22T11:55:10.908Z,20.7595
2019-04-22T11:56:14.188Z,20.7889
2019-04-22T11:57:17.203Z,20.8022
2019-04-22T11:58:21.216Z,20.8450
2019-04-22T11:59:24.913Z,20.9304
2019-04-22T12:00:28.202Z,21.2989
2019-04-22T12:01:31.185Z,20.8450
2019-04-22T12:02:34.182Z,20.9438
2019-04-22T12:03:37.872Z,21.2562
2019-04-22T12:04:41.158Z,20.9438
2019-04-22T12:05:44.189Z,20.9998
2019-04-22T12:06:47.777Z,21.2268
2019-04-22T12:07:50.968Z,21.2429
2019-04-22T12:08:54.295Z,20.7328
2019-04-22T12:09:57.739Z,20.5913
2019-04-22T12:11:03.603Z,20.4604
2019-04-22T12:12:09.637Z,20.5325
2019-04-22T12:13:12.353Z,20.5032
2019-04-22T12:14:15.977Z,20.5165
2019-04-22T12:15:19.196Z,20.5459
2019-04-22T12:16:23.303Z,20.7462
2019-04-22T12:17:26.759Z,20.8717
2019-04-22T12:18:29.231Z,21.0426
2019-04-22T12:19:33.692Z,20.9438
2019-04-22T12:20:39.191Z,20.8450
2019-04-22T12:21:42.305Z,20.3056
2019-04-22T12:22:47.233Z,20.6607
2019-04-22T12:23:51.215Z,20.6046
2019-04-22T12:24:54.411Z,20.5913
2019-04-22T12:26:02.055Z,20.7328
2019-04-22T12:27:06.355Z,20.8717
2019-04-22T12:28:09.187Z,20.8717
2019-04-22T12:29:13.224Z,20.9438
2019-04-22T12:30:17.195Z,21.2562
2019-04-22T12:31:21.690Z,21.2989
2019-04-22T12:32:25.371Z,21.3844
2019-04-22T12:33:29.474Z,21.6247
2019-04-22T12:34:33.346Z,21.4244
2019-04-22T12:35:36.964Z,21.3256
2019-04-22T12:36:42.617Z,21.1147
2019-04-22T12:37:52.833Z,21.3256
2019-04-22T12:38:53.730Z,21.3684
2019-04-22T12:39:56.584Z,21.3256
2019-04-22T12:41:04.344Z,21.7102
2019-04-22T12:42:09.010Z,21.4405
2019-04-22T12:43:12.832Z,21.3256
2019-04-22T12:44:18.047Z,21.3684
2019-04-22T12:45:22.410Z,21.2989
2019-04-22T12:46:26.051Z,20.9144
2019-04-22T12:47:30.506Z,21.0132
2019-04-22T12:48:33.173Z,21.1574
2019-04-22T12:49:39.244Z,21.2268
2019-04-22T12:50:46.481Z,21.1441
2019-04-22T12:51:51.416Z,21.2989
2019-04-22T12:52:59.375Z,21.4965
2019-04-22T12:54:03.349Z,21.6808
2019-04-22T12:55:07.899Z,21.3550
2019-04-22T12:56:12.621Z,21.6407
2019-04-22T12:57:16.720Z,21.4538
2019-04-22T12:58:20.048Z,21.5393
2019-04-22T12:59:23.687Z,21.3123
2019-04-22T13:00:26.640Z,21.4672
2019-04-22T13:01:30.860Z,21.4244
2019-04-22T13:02:34.515Z,21.3256
2019-04-22T13:03:38.270Z,21.2696
2019-04-22T13:04:42.208Z,21.3844
2019-04-22T13:05:45.213Z,21.3417
2019-04-22T13:06:49.884Z,21.1868
2019-04-22T13:07:53.723Z,21.2989
2019-04-22T13:08:56.606Z,21.3684
2019-04-22T13:10:01.268Z,21.3256
2019-04-22T13:11:22.980Z,21.2001
2019-04-22T13:12:27.199Z,21.1868
2019-04-22T13:13:31.225Z,20.9705
2019-04-22T13:14:34.988Z,21.0880
2019-04-22T13:15:39.191Z,21.0426
2019-04-22T13:16:42.905Z,21.0426
2019-04-22T13:17:46.324Z,21.0559
2019-04-22T13:18:55.667Z,20.9571
2019-04-22T13:19:58.400Z,20.8583
2019-04-22T13:21:02.317Z,20.8450
2019-04-22T13:22:05.198Z,20.8156
2019-04-22T13:23:09.432Z,20.8877
2019-04-22T13:24:13.314Z,20.9998
2019-04-22T13:25:17.340Z,21.1441
2019-04-22T13:26:21.111Z,21.0880
2019-04-22T13:27:24.877Z,21.2856
2019-04-22T13:28:29.294Z,21.2135
2019-04-22T13:29:33.034Z,21.3417
2019-04-22T13:30:36.849Z,21.4111
2019-04-22T13:31:40.553Z,21.3684
2019-04-22T13:32:43.188Z,21.4111
2019-04-22T13:33:46.701Z,21.3123
2019-04-22T13:34:55.081Z,21.5232
2019-04-22T13:35:59.331Z,21.5980
2019-04-22T13:37:03.182Z,21.7235
2019-04-22T13:38:06.902Z,21.8090
2019-04-22T13:39:11.297Z,21.7395
2019-04-22T13:40:15.060Z,21.6968
2019-04-22T13:41:29.193Z,21.7235
2019-04-22T13:42:27.563Z,21.5980
2019-04-22T13:43:32.929Z,21.6247
2019-04-22T13:44:37.620Z,21.3550
2019-04-22T13:45:40.804Z,21.3844
2019-04-22T13:47:02.152Z,21.3684
2019-04-22T13:48:14.702Z,21.4111
2019-04-22T13:49:25.561Z,21.4111
2019-04-22T13:50:47.491Z,21.4111
2019-04-22T13:51:49.128Z,21.3977
2019-04-22T13:52:58.504Z,21.4672
2019-04-22T13:54:29.652Z,21.5526
2019-04-22T13:55:05.640Z,21.4832
2019-04-22T13:56:07.418Z,21.5232
2019-04-22T13:57:18.373Z,21.6407
2019-04-22T13:58:15.722Z,21.4965
2019-04-22T13:59:26.099Z,21.5393
2019-04-22T14:00:20.388Z,21.6114
2019-04-22T14:01:23.182Z,21.4965
2019-04-22T14:02:26.668Z,21.5393
2019-04-22T14:03:30.765Z,21.6247
2019-04-22T14:04:34.828Z,21.5846
2019-04-22T14:05:37.272Z,21.6541
2019-04-22T14:06:40.773Z,21.5232
2019-04-22T14:07:43.787Z,21.5393
2019-04-22T14:08:47.173Z,21.4965
2019-04-22T14:09:50.738Z,21.4538
2019-04-22T14:10:54.433Z,21.4538
2019-04-22T14:12:01.935Z,21.4111
2019-04-22T14:13:05.804Z,21.3550
2019-04-22T14:14:09.192Z,21.0292
2019-04-22T14:15:12.199Z,21.1708
2019-04-22T14:16:15.438Z,21.2135
2019-04-22T14:17:18.767Z,21.2268
2019-04-22T14:18:21.204Z,21.2696
2019-04-22T14:19:25.889Z,21.4244
2019-04-22T14:20:31.283Z,21.3256
2019-04-22T14:21:36.682Z,21.1708
2019-04-22T14:22:39.183Z,21.2268
2019-04-22T14:23:42.487Z,21.3417
2019-04-22T14:24:45.169Z,21.2989
2019-04-22T14:25:48.512Z,21.1868
2019-04-22T14:27:07.233Z,21.1574
2019-04-22T14:28:05.446Z,21.2562
2019-04-22T14:29:08.107Z,21.2989
2019-04-22T14:30:12.273Z,21.3684
2019-04-22T14:31:15.190Z,21.3550
2019-04-22T14:32:21.887Z,21.2135
2019-04-22T14:33:26.014Z,21.2135
2019-04-22T14:34:30.233Z,21.1868
2019-04-22T14:35:35.335Z,21.1868
2019-04-22T14:36:39.320Z,21.2135
2019-04-22T14:37:42.575Z,21.2268
2019-04-22T14:38:45.957Z,21.3550
2019-04-22T14:39:49.190Z,21.3123
2019-04-22T14:40:52.193Z,21.2989
2019-04-22T14:42:14.014Z,21.3417
2019-04-22T14:43:24.739Z,21.2989
2019-04-22T14:46:01.539Z,20.9010
2019-04-22T14:47:09.188Z,20.8583
2019-04-22T14:48:07.236Z,20.8717
2019-04-22T14:49:11.851Z,20.8316
2019-04-22T14:50:17.693Z,20.6607
2019-04-22T14:51:23.592Z,20.6901
2019-04-22T14:52:38.115Z,20.7595
2019-04-22T14:53:41.168Z,20.7595
2019-04-22T14:54:44.649Z,20.7729
2019-04-22T14:55:38.446Z,20.7729
2019-04-22T14:56:42.308Z,20.7889
2019-04-22T14:57:46.832Z,20.7889
2019-04-22T14:58:50.900Z,20.8022
2019-04-22T14:59:55.550Z,20.6741
2019-04-22T15:00:59.127Z,20.6901
2019-04-22T15:02:03.429Z,20.6607
2019-04-22T15:03:08.174Z,20.6474
2019-04-22T15:04:11.186Z,20.6607
2019-04-22T15:05:14.359Z,20.5913
2019-04-22T15:06:18.148Z,20.7034
2019-04-22T15:07:21.197Z,20.7328
2019-04-22T15:08:24.804Z,20.6901
2019-04-22T15:09:28.113Z,20.7034
2019-04-22T15:10:31.881Z,20.7889
2019-04-22T15:11:48.311Z,20.7889
2019-04-22T15:12:46.487Z,20.7462
2019-04-22T15:13:51.620Z,20.7034
2019-04-22T15:14:55.482Z,20.7034
2019-04-22T15:15:59.477Z,20.6474